Time;durP1;ratioP1;P1;durP2;ratioP2;P2;SDS_P1;SDS_P2;PMS_P1;PMS_P2;Temp;Humidity;BMP_temperature;BMP_pressure;BME280_temperature;BME280_humidity;BME280_pressure;Samples;Min_cycle;Max_cycle;Signal;HPM_P1;HPM_P2
2022/08/18 00:02:25;;;;;;;7.35;4.82;;;21.70;99.90;;;20.90;100.00;97309.59;4938879;28;20569;-64
2022/08/18 00:04:56;;;;;;;6.43;5.05;;;21.60;99.90;;;20.72;100.00;97319.97;4956078;28;20131;-63
2022/08/18 00:07:30;;;;;;;6.28;4.68;;;21.50;99.90;;;20.90;100.00;97312.25;4940383;28;20044;-63
2022/08/18 00:09:59;;;;;;;5.30;4.40;;;21.40;99.90;;;20.79;100.00;97315.81;4939709;28;20061;-65
2022/08/18 00:12:40;;;;;;;6.03;4.70;;;21.40;99.90;;;20.95;100.00;97314.47;4937616;28;20075;-64
2022/08/18 00:15:11;;;;;;;6.07;4.70;;;21.50;99.90;;;21.02;100.00;97307.66;4938284;29;20047;-64
2022/08/18 00:17:38;;;;;;;7.15;5.63;;;21.60;99.90;;;20.72;100.00;97313.88;4938491;28;20810;-64
2022/08/18 00:20:13;;;;;;;7.55;5.55;;;21.60;99.90;;;20.59;100.00;97320.22;4938627;28;20134;-65
2022/08/18 00:22:40;;;;;;;5.88;5.03;;;21.50;99.90;;;20.80;100.00;97319.28;4935481;28;20205;-64
2022/08/18 00:25:12;;;;;;;5.30;4.53;;;21.40;99.90;;;21.00;100.00;97315.72;4940982;28;20439;-63
2022/08/18 00:27:40;;;;;;;8.60;4.37;;;21.50;99.90;;;21.17;100.00;97308.13;4942689;29;20213;-64
2022/08/18 00:30:13;;;;;;;4.82;4.28;;;21.60;99.90;;;21.22;100.00;97298.78;4946843;28;20134;-64
2022/08/18 00:32:43;;;;;;;5.72;4.63;;;21.80;99.90;;;21.05;100.00;97297.69;4942909;29;20050;-64
2022/08/18 00:35:25;;;;;;;5.85;4.50;;;21.60;99.90;;;21.17;100.00;97298.38;4941562;28;20055;-65
2022/08/18 00:37:57;;;;;;;6.13;4.60;;;21.70;99.90;;;21.22;100.00;97293.50;4943683;28;20732;-64
2022/08/18 00:40:35;;;;;;;5.07;4.20;;;21.70;99.90;;;21.23;100.00;97289.06;4938495;28;20052;-64
2022/08/18 00:43:07;;;;;;;5.40;3.95;;;21.70;99.90;;;21.18;100.00;97281.56;4956797;28;20437;-63
2022/08/18 00:45:38;;;;;;;6.30;4.80;;;21.70;99.90;;;21.24;100.00;97291.56;4944674;28;20051;-64
2022/08/18 00:48:07;;;;;;;5.85;4.68;;;21.70;99.90;;;21.00;100.00;97293.78;4943534;28;20109;-65
2022/08/18 00:50:51;;;;;;;6.03;4.32;;;21.70;99.90;;;21.10;100.00;97298.09;4941242;28;20174;-64
2022/08/18 00:53:49;;;;;;;6.35;4.55;;;21.70;99.90;;;20.84;100.00;97300.41;4956320;28;20504;-64
2022/08/18 00:56:30;;;;;;;7.10;4.35;;;21.70;99.90;;;20.84;100.00;97299.59;4941854;29;20051;-64
2022/08/18 00:59:13;;;;;;;8.63;4.38;;;21.60;99.90;;;20.87;100.00;97294.88;4959726;28;20170;-64
2022/08/18 01:01:42;;;;;;;7.63;4.57;;;21.50;99.90;;;20.92;100.00;97288.38;4943674;29;20505;-63
2022/08/18 01:04:19;;;;;;;7.25;4.75;;;21.40;99.90;;;20.45;100.00;97296.81;4959787;28;20075;-64
2022/08/18 01:06:59;;;;;;;6.35;4.68;;;21.50;99.90;;;20.37;100.00;97315.13;4941043;29;20531;-64
2022/08/18 01:09:26;;;;;;;7.85;5.20;;;21.30;99.90;;;20.22;100.00;97318.09;4957777;28;20213;-63
2022/08/18 01:11:55;;;;;;;5.78;4.80;;;21.10;99.90;;;20.41;100.00;97329.69;4955777;28;20140;-64
2022/08/18 01:14:23;;;;;;;6.38;4.82;;;21.10;99.90;;;20.58;100.00;97328.28;4943762;29;20054;-64
2022/08/18 01:22:35;;;;;;;5.50;4.65;;;21.10;99.90;;;20.54;100.00;97350.56;4941728;28;20043;-64
2022/08/18 01:27:54;;;;;;;8.68;5.00;;;21.20;99.90;;;20.46;100.00;97370.53;4938459;28;20064;-64
2022/08/18 01:30:26;;;;;;;6.18;3.85;;;21.20;99.90;;;20.45;100.00;97371.47;4942351;28;20146;-64
2022/08/18 01:32:53;;;;;;;7.60;4.55;;;21.20;99.90;;;20.36;100.00;97374.06;4940544;28;20051;-64
2022/08/18 01:35:24;;;;;;;7.22;4.90;;;21.20;99.90;;;20.07;100.00;97390.56;4937923;28;20051;-64
2022/08/18 01:37:53;;;;;;;5.97;4.55;;;21.00;99.90;;;19.98;100.00;97410.63;4938397;29;20060;-64
2022/08/18 01:40:23;;;;;;;9.27;5.35;;;21.00;99.90;;;19.88;100.00;97422.88;4954654;28;20047;-64
2022/08/18 01:43:10;;;;;;;6.93;4.88;;;20.90;99.90;;;19.75;100.00;97440.66;4954352;28;20466;-64
2022/08/18 01:45:38;;;;;;;7.97;4.82;;;20.80;99.90;;;19.66;100.00;97452.75;4942678;29;20153;-63
2022/08/18 01:48:05;;;;;;;6.30;5.00;;;20.70;99.90;;;19.56;100.00;97464.97;4941349;28;20510;-64
2022/08/18 01:50:34;;;;;;;8.02;5.40;;;20.50;99.90;;;19.41;100.00;97488.13;4940077;28;20146;-63
2022/08/18 01:53:04;;;;;;;7.30;5.53;;;20.40;99.90;;;19.33;100.00;97503.69;4943767;28;20047;-64
2022/08/18 01:55:34;;;;;;;9.25;5.53;;;20.20;99.90;;;19.35;100.00;97523.66;4942033;28;20051;-63
2022/08/18 01:58:01;;;;;;;7.55;5.00;;;20.10;99.90;;;19.40;100.00;97542.53;4941227;29;20071;-64
2022/08/18 02:00:31;;;;;;;6.53;5.30;;;20.10;99.90;;;19.46;100.00;97535.16;4951385;28;20055;-64
2022/08/18 02:03:00;;;;;;;8.35;5.38;;;20.10;99.90;;;19.47;100.00;97548.16;4941384;29;20133;-63
2022/08/18 02:05:41;;;;;;;5.93;5.05;;;20.10;99.90;;;19.34;100.00;97555.34;4958288;28;20066;-64
2022/08/18 02:08:11;;;;;;;8.48;5.95;;;20.10;99.90;;;18.94;100.00;97563.72;4958493;28;20058;-63
2022/08/18 02:10:39;;;;;;;7.25;5.60;;;19.90;99.90;;;19.13;100.00;97582.38;4941509;28;20085;-64
2022/08/18 02:13:07;;;;;;;8.85;6.15;;;19.80;99.90;;;18.90;100.00;97585.94;4942213;29;20043;-63
2022/08/18 02:15:34;;;;;;;7.65;5.63;;;19.70;99.90;;;18.70;100.00;97595.31;4941027;28;21081;-64
2022/08/18 02:18:01;;;;;;;6.90;5.78;;;19.50;99.90;;;18.65;100.00;97603.53;4940147;28;20051;-64
2022/08/18 02:20:28;;;;;;;8.38;6.10;;;19.50;99.90;;;18.63;100.00;97615.97;4942310;29;20055;-64
2022/08/18 02:22:57;;;;;;;6.75;5.47;;;19.40;99.90;;;18.97;100.00;97627.44;4940401;28;20073;-64
2022/08/18 02:25:24;;;;;;;6.80;5.35;;;19.50;99.90;;;19.00;100.00;97619.34;4943984;28;20067;-64
2022/08/18 02:27:51;;;;;;;7.18;5.43;;;19.60;99.90;;;19.05;100.00;97618.16;4936908;28;20051;-64
2022/08/18 02:30:19;;;;;;;5.95;5.10;;;19.70;99.90;;;18.95;100.00;97616.22;4936653;28;20079;-64
2022/08/18 02:32:47;;;;;;;8.05;5.32;;;19.60;99.90;;;18.90;100.00;97613.06;4939487;28;20052;-64
2022/08/18 02:35:14;;;;;;;8.70;5.80;;;19.60;99.90;;;18.76;100.00;97605.38;4939205;29;20487;-64
2022/08/18 02:37:46;;;;;;;6.85;4.80;;;19.60;99.90;;;18.90;100.00;97612.25;4936698;28;20055;-64
2022/08/18 02:40:15;;;;;;;7.63;5.68;;;19.50;99.90;;;18.63;100.00;97615.13;4942124;28;20077;-64
2022/08/18 02:42:44;;;;;;;8.45;6.97;;;19.50;99.90;;;18.42;100.00;97626.28;4942442;28;20370;-65
2022/08/18 02:45:12;;;;;;;7.03;6.28;;;19.30;99.90;;;18.31;100.00;97652.50;4947618;28;20053;-65
2022/08/18 02:47:41;;;;;;;9.15;6.90;;;19.30;99.90;;;18.22;100.00;97669.78;4924116;28;21985;-64
2022/08/18 02:50:12;;;;;;;9.88;7.93;;;19.20;99.90;;;18.14;100.00;97683.47;4932387;28;20043;-64
2022/08/18 02:52:40;;;;;;;9.57;7.55;;;19.10;99.90;;;18.07;100.00;97703.25;4955085;28;20051;-65
2022/08/18 02:55:08;;;;;;;8.50;7.70;;;19.00;99.90;;;18.06;100.00;97717.31;4940819;28;20110;-65
2022/08/18 02:57:35;;;;;;;11.07;8.18;;;19.00;99.90;;;18.13;100.00;97731.72;4937465;28;20146;-65
2022/08/18 03:00:03;;;;;;;10.38;7.20;;;18.90;99.90;;;18.05;100.00;97736.66;4941687;28;20389;-65
2022/08/18 03:02:31;;;;;;;8.85;7.07;;;18.90;99.90;;;18.14;100.00;97751.78;4939844;29;20051;-65
2022/08/18 03:04:58;;;;;;;6.45;5.68;;;18.80;99.90;;;18.37;100.00;97765.91;4938885;29;20055;-65
2022/08/18 03:07:25;;;;;;;9.48;6.32;;;18.90;99.90;;;18.51;100.00;97780.69;4938182;28;20043;-65
2022/08/18 03:09:51;;;;;;;7.57;6.32;;;18.90;99.90;;;18.51;100.00;97783.31;4938565;28;20146;-65
2022/08/18 03:12:18;;;;;;;8.00;5.93;;;19.00;99.90;;;18.57;100.00;97784.69;4939237;29;20051;-65
2022/08/18 03:14:45;;;;;;;10.20;6.40;;;19.00;99.90;;;18.53;100.00;97786.69;4940138;28;20054;-65
2022/08/18 03:17:13;;;;;;;7.03;5.85;;;19.10;99.90;;;18.54;100.00;97782.25;4942375;28;20169;-65
2022/08/18 03:19:43;;;;;;;8.07;7.22;;;19.10;99.90;;;18.14;100.00;97777.22;4938814;28;20131;-64
2022/08/18 03:22:13;;;;;;;7.10;6.40;;;19.00;99.90;;;18.14;100.00;97777.22;4937498;28;20492;-65
2022/08/18 03:24:55;;;;;;;12.52;7.60;;;18.90;99.90;;;18.21;100.00;97773.19;4936671;28;20060;-65
2022/08/18 03:27:23;;;;;;;9.15;8.23;;;18.90;99.90;;;18.12;100.00;97787.81;4936767;29;20047;-65
2022/08/18 03:29:50;;;;;;;11.18;7.95;;;18.80;99.90;;;18.15;100.00;97798.13;4938577;28;20043;-65
2022/08/18 03:32:17;;;;;;;7.97;7.18;;;18.80;99.90;;;18.31;100.00;97810.16;4955302;28;20056;-65
2022/08/18 03:34:45;;;;;;;8.75;7.07;;;18.80;99.90;;;18.38;100.00;97819.28;4937561;29;20139;-65
2022/08/18 03:37:14;;;;;;;7.35;6.65;;;18.80;99.90;;;18.47;100.00;97820.44;4937970;28;20130;-65
2022/08/18 03:39:41;;;;;;;8.00;6.78;;;18.90;99.90;;;18.43;100.00;97824.22;4940165;28;20087;-65
2022/08/18 03:42:09;;;;;;;6.93;6.25;;;18.90;99.90;;;18.44;100.00;97823.28;4940219;29;20043;-65
2022/08/18 03:44:36;;;;;;;11.80;7.80;;;18.90;99.90;;;18.43;100.00;97827.72;4939328;28;20432;-64
2022/08/18 03:47:09;;;;;;;9.25;8.02;;;18.90;99.90;;;18.38;100.00;97829.81;4939218;28;20055;-65
2022/08/18 03:49:36;;;;;;;7.65;6.07;;;19.00;99.90;;;18.45;100.00;97840.72;4951506;28;20051;-65
2022/08/18 03:52:08;;;;;;;8.30;5.28;;;19.00;99.90;;;18.52;100.00;97841.97;4936554;29;20135;-65
2022/08/18 03:54:37;;;;;;;6.75;5.53;;;19.00;99.90;;;18.45;100.00;97832.84;4955402;28;20211;-65
2022/08/18 03:57:08;;;;;;;8.63;5.35;;;19.00;99.90;;;18.49;100.00;97829.91;4937733;29;20051;-65
2022/08/18 03:59:37;;;;;;;6.03;5.03;;;19.10;99.90;;;18.56;100.00;97825.03;4941978;28;20047;-65
2022/08/18 04:02:04;;;;;;;9.30;8.20;;;19.10;99.90;;;18.45;100.00;97815.31;4943126;28;20594;-64
2022/08/18 04:04:32;;;;;;;8.52;7.38;;;19.10;99.90;;;18.34;100.00;97815.22;4958985;28;20062;-65
2022/08/18 04:07:06;;;;;;;10.85;8.00;;;19.00;99.90;;;18.26;100.00;97815.75;4959320;28;21616;-64
2022/08/18 04:09:36;;;;;;;9.70;7.68;;;18.90;99.90;;;18.25;100.00;97816.72;4957018;28;20129;-64
2022/08/18 04:12:12;;;;;;;8.70;7.80;;;18.80;99.90;;;18.30;100.00;97817.22;4944227;28;20047;-63
2022/08/18 04:14:46;;;;;;;9.50;8.48;;;18.80;99.90;;;18.27;100.00;97819.22;4927955;28;20055;-63
2022/08/18 04:17:23;;;;;;;10.10;7.15;;;18.70;99.90;;;18.33;100.00;97827.50;4956677;28;20059;-64
2022/08/18 04:19:54;;;;;;;10.55;8.20;;;18.70;99.90;;;18.54;100.00;97837.47;4940622;28;20059;-64
2022/08/18 04:22:22;;;;;;;9.23;7.68;;;18.80;99.90;;;18.53;100.00;97841.03;4959019;28;20468;-64
2022/08/18 04:24:50;;;;;;;9.43;7.95;;;18.80;99.90;;;18.55;100.00;97839.97;4942615;29;20516;-64
2022/08/18 04:27:19;;;;;;;8.75;6.13;;;18.80;99.90;;;18.75;100.00;97827.22;4946365;28;20110;-64
2022/08/18 04:29:46;;;;;;;11.75;7.57;;;18.90;99.90;;;18.75;100.00;97821.97;4943072;29;20079;-64
2022/08/18 04:32:14;;;;;;;8.48;7.50;;;19.00;99.90;;;18.68;100.00;97820.69;4942546;29;20076;-64
2022/08/18 04:34:47;;;;;;;12.88;8.15;;;19.00;99.90;;;18.65;100.00;97818.28;4939763;28;20043;-64
2022/08/18 04:37:15;;;;;;;9.75;7.38;;;19.00;99.90;;;18.73;100.00;97822.06;4957241;28;20047;-64
2022/08/18 04:39:44;;;;;;;9.13;7.72;;;19.10;99.90;;;18.74;100.00;97817.63;4942028;28;20146;-64
2022/08/18 04:42:11;;;;;;;9.23;7.20;;;19.10;99.90;;;18.80;100.00;97809.34;4959498;28;20049;-64
2022/08/18 04:44:38;;;;;;;8.15;6.88;;;19.10;99.90;;;18.85;100.00;97817.72;4942192;29;20057;-64
2022/08/18 04:47:08;;;;;;;7.82;6.90;;;19.10;99.90;;;18.78;100.00;97812.06;4956768;28;20155;-64
2022/08/18 04:49:36;;;;;;;10.60;8.23;;;19.20;99.90;;;18.81;100.00;97818.91;4941202;28;20632;-64
2022/08/18 04:55:08;;;;;;;9.40;7.15;;;19.10;99.90;;;18.84;100.00;97828.34;4952977;28;20055;-64
2022/08/18 04:57:35;;;;;;;7.78;6.78;;;19.20;99.90;;;18.90;100.00;97822.66;4955427;28;20047;-64
2022/08/18 05:00:06;;;;;;;8.38;6.72;;;19.20;99.90;;;18.88;100.00;97816.66;4939211;29;21863;-64
2022/08/18 05:02:33;;;;;;;9.07;7.18;;;19.30;99.90;;;18.83;100.00;97814.38;4941962;28;20051;-64
2022/08/18 05:05:02;;;;;;;10.63;6.97;;;19.20;99.90;;;18.87;100.00;97821.09;4940452;28;20044;-64
2022/08/18 05:07:29;;;;;;;9.00;7.13;;;19.30;99.90;;;18.88;100.00;97819.28;4942031;28;20153;-64
2022/08/18 05:09:56;;;;;;;7.18;6.22;;;19.30;99.90;;;18.88;100.00;97832.44;4940127;28;20483;-64
2022/08/18 05:12:24;;;;;;;8.90;6.65;;;19.30;99.90;;;18.97;100.00;97829.97;4941014;28;20078;-64
2022/08/18 05:14:53;;;;;;;8.73;6.75;;;19.30;99.90;;;18.99;100.00;97830.72;4937871;28;20050;-64
2022/08/18 05:17:20;;;;;;;8.98;7.18;;;19.30;99.90;;;18.93;100.00;97848.72;4942374;28;20597;-64
2022/08/18 05:19:50;;;;;;;7.90;6.53;;;19.30;99.90;;;18.94;100.00;97848.63;4940633;28;20050;-64
2022/08/18 05:22:19;;;;;;;7.55;5.75;;;19.30;99.90;;;18.93;100.00;97851.34;4941356;28;20044;-64
2022/08/18 05:24:56;;;;;;;7.97;6.35;;;19.30;99.90;;;19.22;100.00;97857.97;4943259;29;20522;-63
2022/08/18 05:27:24;;;;;;;7.07;6.38;;;19.40;99.90;;;18.97;100.00;97861.56;4941440;28;20114;-63
2022/08/18 05:29:50;;;;;;;11.18;7.85;;;19.40;99.90;;;18.75;100.00;97851.72;4941481;28;20134;-64
2022/08/18 05:32:17;;;;;;;9.73;8.18;;;19.30;99.90;;;18.74;100.00;97857.06;4953786;28;20066;-64
2022/08/18 05:35:20;;;;;;;7.20;6.38;;;19.30;99.90;;;18.90;100.00;97848.97;4944580;28;20055;-64
2022/08/18 05:38:24;;;;;;;8.48;7.47;;;19.30;99.90;;;18.99;100.00;97851.75;4951435;28;20173;-64
2022/08/18 05:41:17;;;;;;;11.95;9.40;;;19.30;99.90;;;18.78;100.00;97850.69;4941710;28;20424;-64
2022/08/18 05:43:47;;;;;;;16.98;10.88;;;19.30;99.90;;;18.70;100.00;97864.38;4943973;28;20054;-64
2022/08/18 05:46:21;;;;;;;18.98;11.20;;;19.20;99.90;;;18.59;100.00;97872.16;4937502;28;20043;-64
2022/08/18 05:48:49;;;;;;;19.25;12.75;;;19.10;99.90;;;18.46;100.00;97892.38;4953987;28;20069;-63
2022/08/18 05:51:42;;;;;;;13.75;12.20;;;19.00;99.90;;;18.30;100.00;97909.19;4954794;28;20074;-64
2022/08/18 05:57:09;;;;;;;14.20;12.77;;;18.90;99.90;;;18.29;100.00;97941.69;4953188;28;20075;-63
2022/08/18 05:59:40;;;;;;;18.85;13.07;;;18.80;99.90;;;18.27;100.00;97937.44;4958772;28;20066;-64
2022/08/18 06:02:34;;;;;;;16.88;13.73;;;18.80;99.90;;;18.26;100.00;97957.63;4957009;28;20051;-64
2022/08/18 06:05:14;;;;;;;12.23;10.93;;;18.70;99.90;;;18.36;100.00;97966.59;4942308;28;20043;-64
2022/08/18 06:07:52;;;;;;;14.52;12.50;;;18.80;99.90;;;18.41;100.00;97962.81;4955878;28;20324;-64
2022/08/18 06:10:21;;;;;;;14.18;12.68;;;18.80;99.90;;;18.43;100.00;97960.91;4958759;28;20046;-64
2022/08/18 06:12:55;;;;;;;16.00;14.40;;;18.90;99.90;;;18.46;100.00;97956.28;4938372;28;20101;-65
2022/08/18 06:15:48;;;;;;;13.38;11.98;;;18.90;99.90;;;18.57;100.00;97958.19;4939803;28;20044;-64
2022/08/18 06:18:50;;;;;;;15.40;13.75;;;19.00;99.90;;;18.54;100.00;97959.25;4960699;28;20074;-64
2022/08/18 06:21:51;;;;;;;14.80;12.18;;;19.00;99.90;;;18.65;100.00;97953.22;4941131;28;20185;-65
2022/08/18 06:24:43;;;;;;;14.65;13.05;;;19.10;99.90;;;18.57;100.00;97947.66;4956490;28;20590;-65
2022/08/18 06:27:54;;;;;;;12.40;11.20;;;19.10;99.90;;;18.68;100.00;97939.00;4956101;28;20051;-65
2022/08/18 06:30:26;;;;;;;15.07;13.27;;;19.20;99.90;;;18.70;100.00;97940.63;4950200;28;20054;-64
2022/08/18 06:33:28;;;;;;;11.93;10.27;;;19.20;99.90;;;18.76;100.00;97940.16;4952099;28;20052;-65
2022/08/18 06:36:15;;;;;;;11.88;10.68;;;19.30;99.90;;;18.80;100.00;97936.41;4944965;29;20142;-65
2022/08/18 06:39:29;;;;;;;13.55;12.25;;;19.30;99.90;;;18.85;100.00;97928.19;4943326;28;20082;-65
2022/08/18 06:41:56;;;;;;;13.70;12.15;;;19.30;99.90;;;18.84;100.00;97915.13;4938426;28;20051;-65
2022/08/18 06:44:33;;;;;;;12.05;10.75;;;19.40;99.90;;;18.86;100.00;97915.88;4953344;28;20043;-65
2022/08/18 06:47:39;;;;;;;11.93;10.75;;;19.40;99.90;;;19.07;100.00;97926.66;4952485;28;20138;-65
2022/08/18 06:50:19;;;;;;;12.40;10.38;;;19.50;99.90;;;18.89;100.00;97918.31;4951192;28;20158;-65
2022/08/18 06:53:00;;;;;;;11.80;10.70;;;19.50;99.90;;;19.13;100.00;97934.94;4954598;28;20085;-65
2022/08/18 06:55:44;;;;;;;12.43;11.13;;;19.50;99.90;;;18.96;100.00;97924.81;4951229;28;20505;-65
2022/08/18 06:58:14;;;;;;;12.45;11.15;;;19.40;99.90;;;18.91;100.00;97926.94;4955459;28;20113;-65
2022/08/18 07:00:49;;;;;;;14.55;13.15;;;19.40;99.90;;;18.92;100.00;97931.22;4935095;29;20138;-65
2022/08/18 07:03:43;;;;;;;14.05;12.60;;;19.40;99.90;;;18.93;100.00;97936.41;4940251;29;20051;-64
2022/08/18 07:06:22;;;;;;;17.77;15.95;;;19.50;99.90;;;18.88;100.00;97935.03;4936997;29;20047;-64
2022/08/18 07:08:53;;;;;;;20.05;15.98;;;19.40;99.90;;;18.90;100.00;97936.59;4941486;28;20122;-65
2022/08/18 07:11:31;;;;;;;16.15;14.30;;;19.40;99.90;;;18.83;100.00;97939.78;4956176;28;20127;-65
2022/08/18 07:14:14;;;;;;;16.25;14.65;;;19.40;99.90;;;18.89;100.00;97948.06;4944101;28;20067;-65
2022/08/18 07:16:43;;;;;;;16.15;14.25;;;19.40;99.90;;;19.06;100.00;97946.03;4952989;28;20094;-65
2022/08/18 07:19:29;;;;;;;16.45;14.18;;;19.40;99.90;;;18.80;100.00;97946.09;4935701;28;20134;-65
2022/08/18 07:22:12;;;;;;;17.10;15.40;;;19.40;99.90;;;18.68;100.00;97937.25;4950839;28;20094;-65
2022/08/18 07:24:49;;;;;;;15.57;14.07;;;19.30;99.90;;;18.70;100.00;97935.34;4950694;28;20066;-65
2022/08/18 07:27:21;;;;;;;19.10;17.20;;;19.30;99.90;;;18.58;100.00;97925.69;4939603;28;20125;-65
2022/08/18 07:30:07;;;;;;;19.45;17.45;;;19.20;99.90;;;18.77;100.00;97925.25;4936795;29;20055;-64
2022/08/18 07:33:02;;;;;;;19.45;17.38;;;19.10;99.90;;;18.51;100.00;97925.25;4948808;28;20099;-65
2022/08/18 07:35:48;;;;;;;22.02;19.10;;;19.10;99.90;;;18.59;100.00;97937.88;4958648;28;20469;-64
2022/08/18 07:38:41;;;;;;;21.20;19.00;;;19.10;99.90;;;18.53;100.00;97944.41;4963274;28;20055;-65
2022/08/18 07:41:51;;;;;;;20.58;18.42;;;19.00;99.90;;;18.57;100.00;97952.94;4958182;28;20123;-65
2022/08/18 07:44:24;;;;;;;21.80;19.25;;;19.00;99.90;;;18.46;100.00;97953.66;4953488;28;20103;-65
2022/08/18 07:47:00;;;;;;;23.00;20.40;;;19.00;99.90;;;18.45;100.00;97959.00;4952128;28;20085;-65
2022/08/18 07:49:33;;;;;;;23.63;21.27;;;19.00;99.90;;;18.51;100.00;97962.06;4945091;28;20142;-65
2022/08/18 07:52:11;;;;;;;23.05;20.63;;;19.00;99.90;;;18.50;100.00;97963.03;4955955;28;20164;-65
2022/08/18 07:55:30;;;;;;;21.92;19.73;;;19.00;99.90;;;18.59;100.00;97962.38;4958572;28;20873;-65
2022/08/18 07:58:36;;;;;;;23.52;21.20;;;19.00;99.90;;;18.66;100.00;97962.81;4960369;28;20568;-65
2022/08/18 08:01:48;;;;;;;23.30;21.05;;;19.10;99.90;;;18.77;100.00;97962.06;4959160;28;20723;-65
2022/08/18 08:04:38;;;;;;;23.67;21.35;;;19.10;99.90;;;18.75;100.00;97971.84;4937274;29;20154;-65
2022/08/18 08:07:12;;;;;;;24.38;21.85;;;19.30;99.90;;;18.84;100.00;97970.38;4954058;28;20083;-65
2022/08/18 08:10:22;;;;;;;25.73;23.08;;;19.30;99.90;;;19.01;100.00;97964.78;4947644;28;20047;-65
2022/08/18 08:13:25;;;;;;;19.70;17.80;;;19.40;99.90;;;19.34;100.00;97969.44;4942294;28;20155;-65
2022/08/18 08:16:47;;;;;;;26.42;22.52;;;19.50;99.90;;;19.12;100.00;97964.03;4940555;28;20077;-65
2022/08/18 08:19:23;;;;;;;22.33;19.85;;;19.60;99.90;;;19.29;100.00;97963.63;4960551;28;20143;-65
2022/08/18 08:22:25;;;;;;;25.42;21.35;;;19.70;99.90;;;19.35;100.00;97959.75;4943466;29;20055;-64
2022/08/18 08:25:21;;;;;;;24.52;21.95;;;19.80;99.90;;;19.38;100.00;97952.44;4958568;28;20039;-65
2022/08/18 08:28:35;;;;;;;24.80;22.20;;;19.90;99.90;;;19.42;100.00;97942.53;4961725;28;20066;-65
2022/08/18 08:31:23;;;;;;;27.10;24.20;;;20.00;99.90;;;19.36;100.00;97933.31;4949064;28;20154;-65
2022/08/18 08:34:16;;;;;;;;;;;20.10;99.90;;;19.29;100.00;97925.97;4946490;28;20059;-65
2022/08/18 08:36:46;;;;;;;23.90;21.50;;;20.10;99.90;;;19.39;100.00;97912.03;4946884;28;19958;-65
2022/08/18 08:39:37;;;;;;;22.05;19.75;;;20.10;99.90;;;19.59;100.00;97900.03;4959117;28;20047;-65
2022/08/18 08:42:37;;;;;;;25.30;22.90;;;20.10;99.90;;;19.61;100.00;97892.00;4941637;29;20048;-65
2022/08/18 08:45:15;;;;;;;24.03;21.63;;;20.20;99.90;;;19.59;100.00;97896.53;4960891;28;20063;-65
2022/08/18 08:48:00;;;;;;;22.17;20.02;;;20.40;99.90;;;19.69;100.00;97899.38;4942787;28;20307;-65
2022/08/18 08:50:59;;;;;;;26.00;20.77;;;20.60;99.90;;;19.65;100.00;97891.66;4942029;28;20059;-65
2022/08/18 08:53:30;;;;;;;23.00;20.70;;;20.60;99.90;;;19.61;100.00;97886.72;4956923;28;20082;-65
2022/08/18 08:56:07;;;;;;;23.45;21.05;;;20.70;99.90;;;19.81;100.00;97896.66;4940146;29;20079;-65
2022/08/18 08:58:39;;;;;;;22.00;19.80;;;20.60;99.90;;;19.82;100.00;97894.88;4951717;28;20097;-65
2022/08/18 09:01:23;;;;;;;20.42;17.10;;;20.60;99.90;;;19.74;100.00;97882.25;4941260;28;20174;-65
2022/08/18 09:04:29;;;;;;;19.02;17.02;;;20.60;99.90;;;19.59;100.00;97891.25;4944187;29;20109;-65
2022/08/18 09:07:22;;;;;;;21.05;18.85;;;20.60;99.90;;;19.50;100.00;97887.56;4943195;28;20381;-65
2022/08/18 09:10:26;;;;;;;;;;;20.60;99.90;;;19.48;100.00;97904.38;4949266;28;20138;-65
2022/08/18 09:13:21;;;;;;;18.52;15.73;;;20.40;99.90;;;19.51;100.00;97918.19;4940010;28;20018;-65
2022/08/18 09:16:28;;;;;;;22.70;19.00;;;20.20;99.90;;;19.40;100.00;97932.13;4945052;29;20517;-65
2022/08/18 09:19:47;;;;;;;20.25;18.17;;;20.20;99.90;;;19.38;100.00;97933.19;4941102;28;20126;-65
2022/08/18 09:22:32;;;;;;;24.27;21.83;;;20.10;99.90;;;19.59;100.00;97939.53;4938607;28;20146;-65
2022/08/18 09:25:00;;;;;;;22.80;20.40;;;20.10;99.90;;;19.37;100.00;97937.63;4940838;29;20445;-65
2022/08/18 09:27:45;;;;;;;23.45;21.15;;;20.20;99.90;;;19.61;100.00;97947.28;4936795;29;20051;-65
2022/08/18 09:30:53;;;;;;;22.38;19.98;;;20.20;99.90;;;19.72;100.00;97941.28;4952407;28;20054;-65
2022/08/18 09:33:44;;;;;;;23.08;20.70;;;20.30;99.90;;;19.91;100.00;97940.72;4953093;28;20127;-65
2022/08/18 09:36:38;;;;;;;22.67;20.52;;;20.50;99.90;;;20.03;100.00;97935.41;4937516;29;20051;-65
2022/08/18 09:42:38;;;;;;;;;;;21.00;99.90;;;20.61;100.00;97913.44;4950051;28;20509;-65
2022/08/18 09:45:45;;;;;;;23.90;21.38;;;21.10;99.90;;;20.55;100.00;97891.00;4944011;28;20317;-65
2022/08/18 09:48:13;;;;;;;24.75;22.25;;;21.10;99.90;;;20.47;100.00;97874.94;4943953;28;20103;-65
2022/08/18 09:50:55;;;;;;;25.88;23.20;;;21.00;99.90;;;20.43;100.00;97855.03;4945567;28;20063;-65
2022/08/18 09:53:53;;;;;;;23.88;21.33;;;21.10;99.90;;;20.43;100.00;97833.94;4947200;28;20129;-65
2022/08/18 09:56:59;;;;;;;22.65;20.35;;;21.00;99.90;;;20.35;100.00;97844.28;4942771;28;20480;-65
2022/08/18 09:59:32;;;;;;;25.27;22.70;;;21.20;99.90;;;20.51;100.00;97855.28;4936016;28;20054;-65
2022/08/18 10:02:13;;;;;;;24.23;21.70;;;21.30;99.90;;;20.37;100.00;97863.44;4939742;29;20130;-65
2022/08/18 10:05:15;;;;;;;23.27;20.98;;;21.20;99.90;;;20.43;100.00;97873.50;4951579;28;20048;-65
2022/08/18 10:07:56;;;;;;;22.15;19.95;;;21.30;99.90;;;20.18;100.00;97866.66;4939229;28;20119;-65
2022/08/18 10:10:53;;;;;;;22.13;19.83;;;21.10;99.90;;;20.15;100.00;97873.00;4952347;28;20138;-65
2022/08/18 10:14:06;;;;;;;23.60;21.23;;;21.10;99.90;;;20.18;100.00;97872.75;4935831;28;20059;-65
2022/08/18 10:16:51;;;;;;;24.33;21.95;;;21.00;99.90;;;19.99;100.00;97865.44;4952276;28;20425;-65
2022/08/18 10:19:53;;;;;;;25.33;22.83;;;21.10;99.90;;;20.18;100.00;97874.56;4952939;28;20056;-65
2022/08/18 10:22:46;;;;;;;23.98;21.50;;;21.10;99.90;;;20.41;100.00;97891.22;4940955;29;20048;-65
2022/08/18 10:25:41;;;;;;;23.10;20.70;;;21.10;99.90;;;20.43;100.00;97884.03;4958247;28;20126;-65
2022/08/18 10:28:48;;;;;;;22.85;20.45;;;21.10;99.90;;;20.44;100.00;97865.47;4957336;28;20086;-65
2022/08/18 10:31:17;;;;;;;21.73;18.88;;;21.10;99.90;;;20.44;100.00;97862.00;4939350;28;20047;-65
2022/08/18 10:33:57;;;;;;;;;;;21.20;99.90;;;20.52;100.00;97858.75;4935448;28;20063;-65
2022/08/18 10:36:50;;;;;;;21.42;19.15;;;21.40;99.90;;;20.79;100.00;97861.88;4941341;28;20244;-65
2022/08/18 10:39:23;;;;;;;18.40;16.60;;;21.40;99.90;;;20.73;100.00;97857.06;4952821;28;20585;-65
2022/08/18 10:42:13;;;;;;;21.63;19.42;;;21.40;99.90;;;20.50;100.00;97853.59;4950629;28;20039;-65
2022/08/18 10:44:44;;;;;;;15.20;13.70;;;21.40;99.90;;;20.85;100.00;97850.00;4954507;28;20659;-65
2022/08/18 10:47:28;;;;;;;15.20;13.75;;;21.50;99.90;;;21.15;100.00;97851.97;4955661;28;20606;-65
2022/08/18 10:50:08;;;;;;;16.13;14.40;;;21.50;99.90;;;21.19;100.00;97849.91;4938656;28;20560;-65
2022/08/18 10:53:03;;;;;;;17.98;15.95;;;21.60;99.90;;;20.90;100.00;97842.56;4952082;28;20147;-65
2022/08/18 10:56:02;;;;;;;19.40;16.48;;;21.60;99.90;;;20.79;100.00;97826.75;4938452;29;20059;-65
2022/08/18 10:58:50;;;;;;;16.45;14.15;;;21.50;99.90;;;20.71;100.00;97815.97;4950942;28;20052;-65
2022/08/18 11:01:50;;;;;;;16.83;15.13;;;21.50;99.90;;;20.70;100.00;97801.94;4939240;28;20309;-65
2022/08/18 11:04:47;;;;;;;16.13;14.43;;;21.70;99.90;;;20.84;100.00;97763.88;4937860;29;20075;-65
2022/08/18 11:07:28;;;;;;;15.02;13.43;;;21.90;99.90;;;21.49;100.00;97768.19;4937741;28;20062;-65
2022/08/18 11:10:15;;;;;;;13.55;12.15;;;22.20;99.90;;;22.13;100.00;97761.00;4949957;28;20537;-65
2022/08/18 11:13:15;;;;;;;15.95;14.35;;;22.50;99.90;;;21.57;100.00;97735.00;4948062;28;20081;-65
2022/08/18 11:16:11;;;;;;;16.02;13.63;;;22.60;99.90;;;21.38;100.00;97735.69;4955854;28;20058;-65